Baie-Comeau, Canada
Current Conditions -  °F | °C
As of 9:00 PM on Saturday 20 Dec 2014 (Local Time) from CYBC Reporting Station
Overcast Overcast  
Wind Chill: 19°   Ceiling: 2100
Heat Index: 19°   Visibility: 9mi
Dew Point: 14°   Wind: 3mph
Humidity: 80%   Direction: 310°NW
Pressure: 30.4"   Gusts: NA
Location:  49.22°N, 68.15°W
Report Text: CYBC 210200Z AUTO 31003KT 9SM OVC021 M07/M10 A3040 RMK SLP296
Loading
Personal Weather Stations






























Interactive Weather Map New forecast layout! Learn more

10-Day Weather Forecast

Advertisements
Track Severe Weather on mobile